Archival Weather

Abadan

Abadan, Iran (OIAA)

Report from: Thursday, September 21, 2023 2:00 AM UTC
Current time: Sunday, February 25, 2024 10:03 PM UTC

Current weather – Weather history – Daily summaries
Weather forecast

Temperature23.0°C (73.4°F)
Dew point8.0°C (46.4°F)
Winds Calm
Clouds Sky clear
Altimeter29.68 in.Hg (1005 mB)
Relative humidity38 %
Density altitude1,364 ft. (416 m)
Remarks Ceiling and visibility OK
Flight conditions Visual Meteorological Conditions
Raw dataOIAA 210200Z 00000KT CAVOK 23/08 Q1005
An error has occurred. This application may no longer respond until reloaded. Reload 🗙